createdAt,value
2023-04-09T00:00:47.560Z,98127.63
2023-04-09T00:03:15.840Z,98124.00
2023-04-09T00:05:44.412Z,98127.63
2023-04-09T00:08:12.703Z,98118.78
2023-04-09T00:10:40.990Z,98120.66
2023-04-09T00:13:09.033Z,98124.16
2023-04-09T00:15:37.115Z,98124.25
2023-04-09T00:18:06.534Z,98117.28
2023-04-09T00:20:34.650Z,98119.09
2023-04-09T00:23:02.789Z,98111.06
2023-04-09T00:25:31.018Z,98104.19
2023-04-09T00:27:59.347Z,98107.75
2023-04-09T00:30:29.658Z,98107.88
2023-04-09T00:32:57.806Z,98107.78
2023-04-09T00:35:27.463Z,98104.97
2023-04-09T00:37:55.615Z,98108.41
2023-04-09T00:40:23.906Z,98109.22
2023-04-09T00:42:51.951Z,98104.09
2023-04-09T00:45:20.084Z,98095.38
2023-04-09T00:47:48.548Z,98102.25
2023-04-09T00:50:18.047Z,98101.38
2023-04-09T00:52:47.983Z,98110.91
2023-04-09T00:55:16.858Z,98103.91
2023-04-09T00:57:44.973Z,98109.13
2023-04-09T01:00:14.280Z,98101.22
2023-04-09T01:02:43.569Z,98111.53
2023-04-09T01:05:12.798Z,98103.69
2023-04-09T01:07:55.852Z,98107.94
2023-04-09T01:10:31.102Z,98103.69
2023-04-09T01:13:08.531Z,98105.31
2023-04-09T01:15:42.498Z,98105.25
2023-04-09T01:18:17.149Z,98111.31
2023-04-09T01:20:53.259Z,98108.69
2023-04-09T01:23:36.129Z,98103.38
2023-04-09T01:26:08.717Z,98110.34
2023-04-09T01:28:50.378Z,98103.34
2023-04-09T01:31:21.202Z,98110.28
2023-04-09T01:33:49.567Z,98105.81
2023-04-09T01:36:18.440Z,98115.41
2023-04-09T01:38:47.805Z,98105.94
2023-04-09T01:41:18.670Z,98101.50
2023-04-09T01:43:49.840Z,98098.78
2023-04-09T01:46:19.707Z,98096.25
2023-04-09T01:48:47.938Z,98096.31
2023-04-09T01:51:16.797Z,98091.03
2023-04-09T01:53:45.046Z,98097.06
2023-04-09T01:56:13.146Z,98094.38
2023-04-09T01:58:41.583Z,98094.31
2023-04-09T02:01:17.385Z,98089.06
2023-04-09T02:03:50.160Z,98092.81
2023-04-09T02:06:26.803Z,98079.91
2023-04-09T02:08:55.149Z,98075.53
2023-04-09T02:11:27.074Z,98079.75
2023-04-09T02:13:56.704Z,98085.81
2023-04-09T02:16:28.487Z,98085.78
2023-04-09T02:18:57.161Z,98086.69
2023-04-09T02:21:27.141Z,98086.69
2023-04-09T02:23:55.703Z,98097.16
2023-04-09T02:26:24.216Z,98096.16
2023-04-09T02:28:52.890Z,98101.34
2023-04-09T02:31:21.137Z,98102.28
2023-04-09T02:33:50.650Z,98091.03
2023-04-09T02:36:18.740Z,98096.41
2023-04-09T02:38:46.943Z,98089.56
2023-04-09T02:41:15.097Z,98079.19
2023-04-09T02:43:43.212Z,98084.28
2023-04-09T02:46:11.367Z,98091.25
2023-04-09T02:48:39.772Z,98081.69
2023-04-09T02:51:09.489Z,98087.81
2023-04-09T02:53:39.304Z,98084.41
2023-04-09T02:56:07.624Z,98073.88
2023-04-09T02:58:35.780Z,98082.41
2023-04-09T03:01:04.180Z,98078.06
2023-04-09T03:03:32.477Z,98067.88
2023-04-09T03:06:00.648Z,98079.88
2023-04-09T03:08:30.149Z,98080.78
2023-04-09T03:10:58.184Z,98082.66
2023-04-09T03:13:26.338Z,98068.84
2023-04-09T03:15:54.494Z,98071.38
2023-04-09T03:18:22.820Z,98068.94
2023-04-09T03:20:50.937Z,98068.97
2023-04-09T03:23:19.120Z,98069.81
2023-04-09T03:25:50.195Z,98062.81
2023-04-09T03:28:20.284Z,98069.03
2023-04-09T03:30:52.540Z,98071.53
2023-04-09T03:33:20.866Z,98061.94
2023-04-09T03:35:53.227Z,98065.44
2023-04-09T03:38:31.227Z,98065.50
2023-04-09T03:41:03.326Z,98063.78
2023-04-09T03:43:34.129Z,98066.41
2023-04-09T03:46:02.294Z,98065.50
2023-04-09T03:48:31.017Z,98058.50
2023-04-09T03:50:59.675Z,98072.47
2023-04-09T03:53:35.705Z,98068.97
2023-04-09T03:56:09.167Z,98075.00
2023-04-09T03:58:38.134Z,98068.91
2023-04-09T04:01:07.777Z,98072.47
2023-04-09T04:03:41.148Z,98075.19
2023-04-09T04:06:27.412Z,98074.38
2023-04-09T04:09:20.260Z,98075.28
2023-04-09T04:11:56.015Z,98073.69
2023-04-09T04:14:27.587Z,98072.84
2023-04-09T04:17:02.896Z,98082.56
2023-04-09T04:19:32.043Z,98085.19
2023-04-09T04:22:01.142Z,98085.34
2023-04-09T04:24:29.501Z,98082.72
2023-04-09T04:26:59.085Z,98086.13
2023-04-09T04:29:33.178Z,98099.19
2023-04-09T04:32:03.169Z,98088.66
2023-04-09T04:34:36.920Z,98092.13
2023-04-09T04:37:14.906Z,98086.88
2023-04-09T04:39:43.162Z,98090.28
2023-04-09T04:42:17.980Z,98097.19
2023-04-09T04:44:47.250Z,98093.72
2023-04-09T04:47:32.478Z,98094.38
2023-04-09T04:50:01.389Z,98089.13
2023-04-09T04:52:31.027Z,98093.44
2023-04-09T04:55:01.490Z,98099.38
2023-04-09T04:57:31.097Z,98100.22
2023-04-09T04:59:59.401Z,98092.28
2023-04-09T05:02:27.942Z,98094.81
2023-04-09T05:05:14.918Z,98088.53
2023-04-09T05:07:49.197Z,98093.69
2023-04-09T05:10:17.335Z,98093.66
2023-04-09T05:12:48.271Z,98095.28
2023-04-09T05:15:24.620Z,98100.44
2023-04-09T05:17:52.932Z,98098.63
2023-04-09T05:20:21.247Z,98101.94
2023-04-09T05:23:10.421Z,98104.63
2023-04-09T05:25:43.980Z,98108.03
2023-04-09T05:28:22.229Z,98104.38
2023-04-09T05:30:57.545Z,98109.59
2023-04-09T05:33:25.733Z,98111.34
2023-04-09T05:35:53.923Z,98108.56
2023-04-09T05:38:22.131Z,98106.72
2023-04-09T05:40:57.251Z,98106.75
2023-04-09T05:43:27.272Z,98116.16
2023-04-09T05:45:55.404Z,98113.53
2023-04-09T05:48:23.713Z,98122.00
2023-04-09T05:50:55.627Z,98122.00
2023-04-09T05:53:26.945Z,98122.78
2023-04-09T05:55:55.113Z,98125.22
2023-04-09T05:58:29.725Z,98128.75
2023-04-09T06:00:59.317Z,98127.72
2023-04-09T06:03:28.961Z,98127.91
2023-04-09T06:05:57.364Z,98132.78
2023-04-09T06:08:25.671Z,98130.09
2023-04-09T06:10:53.742Z,98127.19
2023-04-09T06:13:21.912Z,98122.91
2023-04-09T06:15:52.318Z,98135.13
2023-04-09T06:18:20.575Z,98133.25
2023-04-09T06:20:48.686Z,98132.09
2023-04-09T06:23:16.905Z,98129.53
2023-04-09T06:25:45.149Z,98133.44
2023-04-09T06:28:13.321Z,98124.50
2023-04-09T06:30:41.425Z,98138.53
2023-04-09T06:33:11.075Z,98136.47
2023-04-09T06:35:39.264Z,98140.19
2023-04-09T06:38:07.927Z,98146.66
2023-04-09T06:40:36.237Z,98143.66
2023-04-09T06:43:04.415Z,98148.59
2023-04-09T06:45:41.157Z,98149.00
2023-04-09T06:48:10.749Z,98138.28
2023-04-09T06:50:38.868Z,98149.63
2023-04-09T06:53:08.112Z,98141.53
2023-04-09T06:55:36.476Z,98142.88
2023-04-09T06:58:04.774Z,98160.09
2023-04-09T07:00:32.993Z,98154.50
2023-04-09T07:03:01.807Z,98161.00
2023-04-09T07:05:32.186Z,98165.41
2023-04-09T07:08:00.234Z,98165.34
2023-04-09T07:10:28.450Z,98173.97
2023-04-09T07:12:56.714Z,98176.75
2023-04-09T07:15:24.975Z,98169.16
2023-04-09T07:17:53.272Z,98179.25
2023-04-09T07:20:21.571Z,98181.09
2023-04-09T07:22:51.396Z,98180.72
2023-04-09T07:25:19.601Z,98182.56
2023-04-09T07:27:47.772Z,98179.03
2023-04-09T07:30:16.176Z,98180.06
2023-04-09T07:32:44.277Z,98175.25
2023-04-09T07:35:12.552Z,98182.50
2023-04-09T07:37:40.676Z,98186.03
2023-04-09T07:40:12.076Z,98184.16
2023-04-09T07:42:40.723Z,98183.75
2023-04-09T07:45:09.808Z,98191.88
2023-04-09T07:47:37.993Z,98194.06
2023-04-09T07:50:07.379Z,98184.81
2023-04-09T07:52:35.745Z,98184.34
2023-04-09T07:55:03.848Z,98198.16
2023-04-09T07:57:34.043Z,98191.09
2023-04-09T08:00:02.514Z,98198.06
2023-04-09T08:02:41.444Z,98191.72
2023-04-09T08:05:10.892Z,98193.25
2023-04-09T08:07:39.069Z,98198.69
2023-04-09T08:10:08.225Z,98198.78
2023-04-09T08:12:37.766Z,98197.16
2023-04-09T08:15:06.652Z,98202.47
2023-04-09T08:17:37.094Z,98203.09
2023-04-09T08:20:05.509Z,98211.59
2023-04-09T08:22:34.669Z,98213.75
2023-04-09T08:25:03.025Z,98217.53
2023-04-09T08:27:31.538Z,98211.22
2023-04-09T08:30:01.120Z,98212.63
2023-04-09T08:32:29.312Z,98210.16
2023-04-09T08:34:57.618Z,98214.28
2023-04-09T08:37:26.850Z,98221.72
2023-04-09T08:39:55.461Z,98217.25
2023-04-09T08:42:24.158Z,98221.53
2023-04-09T08:44:52.377Z,98228.72
2023-04-09T08:47:22.920Z,98233.75
2023-04-09T08:49:51.135Z,98225.03
2023-04-09T08:52:22.149Z,98235.38
2023-04-09T08:54:52.522Z,98234.03
2023-04-09T08:57:20.692Z,98233.84
2023-04-09T08:59:49.109Z,98236.34
2023-04-09T09:02:17.229Z,98227.00
2023-04-09T09:04:48.032Z,98239.56
2023-04-09T09:07:16.801Z,98237.66
2023-04-09T09:09:55.917Z,98236.81
2023-04-09T09:12:38.601Z,98240.16
2023-04-09T09:15:25.688Z,98247.94
2023-04-09T09:17:55.985Z,98245.91
2023-04-09T09:20:27.214Z,98242.16
2023-04-09T09:22:56.849Z,98250.59
2023-04-09T09:25:26.727Z,98245.97
2023-04-09T09:27:55.872Z,98249.41
2023-04-09T09:30:25.789Z,98244.25
2023-04-09T09:32:55.234Z,98247.91
2023-04-09T09:35:23.627Z,98247.56
2023-04-09T09:38:05.449Z,98248.53
2023-04-09T09:40:33.703Z,98244.72
2023-04-09T09:43:01.809Z,98247.66
2023-04-09T09:45:30.684Z,98244.00
2023-04-09T09:47:58.875Z,98251.13
2023-04-09T09:50:30.427Z,98248.53
2023-04-09T09:53:06.176Z,98253.31
2023-04-09T09:55:35.807Z,98259.53
2023-04-09T09:58:12.973Z,98251.63
2023-04-09T10:00:42.000Z,98255.03
2023-04-09T10:03:16.080Z,98261.31
2023-04-09T10:05:46.106Z,98253.56
2023-04-09T10:08:16.277Z,98252.50
2023-04-09T10:10:44.988Z,98256.75
2023-04-09T10:13:17.291Z,98255.25
2023-04-09T10:15:46.848Z,98247.25
2023-04-09T10:18:17.791Z,98252.44
2023-04-09T10:20:52.781Z,98240.13
2023-04-09T10:23:32.382Z,98240.25
2023-04-09T10:26:00.538Z,98236.00
2023-04-09T10:28:28.679Z,98230.44
2023-04-09T10:30:57.542Z,98230.16
2023-04-09T10:33:27.946Z,98231.16
2023-04-09T10:35:58.570Z,98232.50
2023-04-09T10:38:38.669Z,98231.34
2023-04-09T10:41:16.733Z,98230.19
2023-04-09T10:43:45.147Z,98219.66
2023-04-09T10:46:30.592Z,98222.38
2023-04-09T10:49:18.278Z,98207.78
2023-04-09T10:51:52.504Z,98208.91
2023-04-09T10:54:44.119Z,98207.78
2023-04-09T10:57:20.171Z,98210.13
2023-04-09T10:59:50.968Z,98211.81
2023-04-09T11:03:11.817Z,98205.53
2023-04-09T11:05:41.866Z,98214.81
2023-04-09T11:08:11.698Z,98204.00
2023-04-09T11:10:44.087Z,98203.47
2023-04-09T11:13:13.599Z,98204.75
2023-04-09T11:15:42.909Z,98203.88
2023-04-09T11:18:15.040Z,98190.72
2023-04-09T11:20:43.247Z,98203.84
2023-04-09T11:23:13.156Z,98196.72
2023-04-09T11:25:42.649Z,98196.44
2023-04-09T11:28:10.945Z,98188.88
2023-04-09T11:30:39.093Z,98197.25
2023-04-09T11:33:08.770Z,98189.03
2023-04-09T11:35:37.678Z,98192.63
2023-04-09T11:38:09.995Z,98196.16
2023-04-09T11:40:43.608Z,98190.50
2023-04-09T11:43:13.235Z,98189.91
2023-04-09T11:45:41.714Z,98179.91
2023-04-09T11:48:09.988Z,98187.38
2023-04-09T11:50:38.819Z,98190.78
2023-04-09T11:53:18.008Z,98186.75
2023-04-09T11:55:49.489Z,98184.97
2023-04-09T11:58:19.318Z,98180.47
2023-04-09T12:00:47.670Z,98191.25
2023-04-09T12:03:17.186Z,98187.59
2023-04-09T12:05:50.855Z,98194.09
2023-04-09T12:08:25.103Z,98188.84
2023-04-09T12:10:54.311Z,98189.94
2023-04-09T12:13:33.830Z,98186.00
2023-04-09T12:16:02.972Z,98182.78
2023-04-09T12:18:31.284Z,98179.19
2023-04-09T12:21:01.469Z,98177.59
2023-04-09T12:23:31.483Z,98165.00
2023-04-09T12:26:02.513Z,98167.88
2023-04-09T12:28:32.420Z,98169.34
2023-04-09T12:31:02.375Z,98170.84
2023-04-09T12:33:30.615Z,98171.91
2023-04-09T12:35:58.862Z,98173.41
2023-04-09T12:38:26.992Z,98166.22
2023-04-09T12:40:55.191Z,98165.63
2023-04-09T12:43:23.322Z,98180.59
2023-04-09T12:45:53.305Z,98178.22
2023-04-09T12:48:21.534Z,98180.03
2023-04-09T12:50:49.761Z,98175.59
2023-04-09T12:53:18.511Z,98186.50
2023-04-09T12:55:46.998Z,98199.16
2023-04-09T12:58:15.473Z,98199.91
2023-04-09T13:00:43.788Z,98194.44
2023-04-09T13:03:16.816Z,98183.50
2023-04-09T13:05:45.367Z,98190.69
2023-04-09T13:08:13.773Z,98184.56
2023-04-09T13:10:42.313Z,98187.28
2023-04-09T13:13:13.044Z,98196.44
2023-04-09T13:15:43.519Z,98204.22
2023-04-09T13:18:13.943Z,98203.34
2023-04-09T13:20:42.206Z,98208.28
2023-04-09T13:23:10.353Z,98218.25
2023-04-09T13:25:38.816Z,98208.06
2023-04-09T13:28:07.100Z,98221.53
2023-04-09T13:30:35.350Z,98218.25
2023-04-09T13:33:03.741Z,98222.06
2023-04-09T13:35:33.564Z,98218.53
2023-04-09T13:38:01.787Z,98206.75
2023-04-09T13:40:30.095Z,98213.25
2023-04-09T13:42:58.273Z,98214.59
2023-04-09T13:45:26.603Z,98215.91
2023-04-09T13:47:55.312Z,98209.59
2023-04-09T13:50:23.537Z,98217.59
2023-04-09T13:52:53.208Z,98212.72
2023-04-09T13:55:21.496Z,98210.59
2023-04-09T13:57:49.765Z,98213.13
2023-04-09T14:00:19.902Z,98215.94
2023-04-09T14:02:48.179Z,98212.94
2023-04-09T14:05:16.628Z,98216.88
2023-04-09T14:07:44.962Z,98217.00
2023-04-09T14:10:14.564Z,98222.97
2023-04-09T14:12:42.863Z,98215.78
2023-04-09T14:15:12.165Z,98214.28
2023-04-09T14:17:41.276Z,98209.50
2023-04-09T14:20:10.418Z,98215.84
2023-04-09T14:22:39.037Z,98211.09
2023-04-09T14:25:08.170Z,98211.63
2023-04-09T14:27:39.173Z,98211.22
2023-04-09T14:30:08.883Z,98215.75
2023-04-09T14:32:37.277Z,98216.75
2023-04-09T14:35:05.993Z,98222.03
2023-04-09T14:37:34.218Z,98214.88
2023-04-09T14:40:02.402Z,98216.16
2023-04-09T14:42:30.722Z,98209.34
2023-04-09T14:45:00.788Z,98210.94
2023-04-09T14:47:29.025Z,98207.63
2023-04-09T14:49:57.287Z,98206.28
2023-04-09T14:52:25.910Z,98195.66
2023-04-09T14:54:54.164Z,98199.91
2023-04-09T14:57:22.310Z,98200.91
2023-04-09T14:59:51.053Z,98204.50
2023-04-09T15:02:20.729Z,98210.13
2023-04-09T15:04:49.270Z,98206.44
2023-04-09T15:07:17.487Z,98204.59
2023-04-09T15:09:45.673Z,98199.97
2023-04-09T15:12:14.196Z,98205.13
2023-04-09T15:14:42.610Z,98205.50
2023-04-09T15:17:10.634Z,98209.59
2023-04-09T15:19:40.160Z,98211.81
2023-04-09T15:22:08.252Z,98215.06
2023-04-09T15:24:36.505Z,98217.72
2023-04-09T15:27:04.801Z,98224.31
2023-04-09T15:29:33.953Z,98216.84
2023-04-09T15:32:02.241Z,98216.97
2023-04-09T15:34:30.577Z,98215.13
2023-04-09T15:37:00.364Z,98212.59
2023-04-09T15:39:29.465Z,98212.59
2023-04-09T15:41:57.858Z,98217.00
2023-04-09T15:44:26.409Z,98216.16
2023-04-09T15:46:54.723Z,98210.81
2023-04-09T15:49:23.170Z,98211.63
2023-04-09T15:51:51.393Z,98216.06
2023-04-09T15:54:21.297Z,98216.06
2023-04-09T15:56:49.971Z,98218.69
2023-04-09T15:59:19.031Z,98221.28
2023-04-09T16:01:47.282Z,98221.34
2023-04-09T16:04:15.549Z,98216.28
2023-04-09T16:06:43.709Z,98223.41
2023-04-09T16:09:11.806Z,98217.38
2023-04-09T16:11:41.262Z,98213.75
2023-04-09T16:14:10.683Z,98212.66
2023-04-09T16:16:38.965Z,98219.81
2023-04-09T16:19:07.184Z,98218.84
2023-04-09T16:21:35.428Z,98217.81
2023-04-09T16:24:03.928Z,98220.56
2023-04-09T16:26:32.120Z,98217.47
2023-04-09T16:29:04.226Z,98221.78
2023-04-09T16:31:32.563Z,98219.66
2023-04-09T16:34:00.938Z,98210.88
2023-04-09T16:36:29.637Z,98212.84
2023-04-09T16:38:57.847Z,98226.00
2023-04-09T16:41:26.359Z,98226.94
2023-04-09T16:43:54.549Z,98228.78
2023-04-09T16:46:24.121Z,98226.06
2023-04-09T16:48:52.476Z,98226.38
2023-04-09T16:51:21.147Z,98230.94
2023-04-09T16:53:49.360Z,98219.75
2023-04-09T16:56:17.866Z,98237.69
2023-04-09T16:58:46.675Z,98235.97
2023-04-09T17:01:14.848Z,98228.13
2023-04-09T17:03:44.423Z,98233.50
2023-04-09T17:06:12.846Z,98225.09
2023-04-09T17:08:41.330Z,98229.50
2023-04-09T17:11:09.662Z,98234.00
2023-04-09T17:13:37.855Z,98226.25
2023-04-09T17:16:06.809Z,98227.91
2023-04-09T17:18:34.930Z,98219.75
2023-04-09T17:21:04.691Z,98237.81
2023-04-09T17:23:32.925Z,98237.59
2023-04-09T17:26:01.232Z,98235.75
2023-04-09T17:28:29.567Z,98239.31
2023-04-09T17:30:57.767Z,98238.28
2023-04-09T17:33:26.213Z,98240.91
2023-04-09T17:35:54.378Z,98228.97
2023-04-09T17:38:27.529Z,98233.25
2023-04-09T17:40:55.654Z,98248.19
2023-04-09T17:43:23.900Z,98247.31
2023-04-09T17:45:52.042Z,98251.88
2023-04-09T17:48:20.319Z,98255.75
2023-04-09T17:50:48.578Z,98249.75
2023-04-09T17:53:16.949Z,98257.78
2023-04-09T17:55:49.812Z,98254.31
2023-04-09T17:58:18.124Z,98261.44
2023-04-09T18:00:46.452Z,98261.31
2023-04-09T18:03:14.861Z,98261.66
2023-04-09T18:05:43.398Z,98265.06
2023-04-09T18:08:11.622Z,98269.41
2023-04-09T18:10:39.814Z,98268.47
2023-04-09T18:13:09.755Z,98269.16
2023-04-09T18:15:38.374Z,98268.28
2023-04-09T18:18:06.726Z,98269.94
2023-04-09T18:20:34.960Z,98274.34
2023-04-09T18:23:03.108Z,98276.88
2023-04-09T18:25:31.276Z,98273.31
2023-04-09T18:27:59.614Z,98274.59
2023-04-09T18:30:31.219Z,98271.19
2023-04-09T18:32:59.402Z,98285.25
2023-04-09T18:35:28.293Z,98287.28
2023-04-09T18:37:56.664Z,98285.50
2023-04-09T18:40:25.054Z,98275.88
2023-04-09T18:42:53.635Z,98291.00
2023-04-09T18:45:22.373Z,98301.84
2023-04-09T18:47:52.369Z,98288.72
2023-04-09T18:50:21.056Z,98287.06
2023-04-09T18:52:49.373Z,98289.09
2023-04-09T18:55:18.353Z,98292.53
2023-04-09T18:57:47.413Z,98302.97
2023-04-09T19:00:16.485Z,98292.34
2023-04-09T19:02:44.873Z,98298.66
2023-04-09T19:05:14.868Z,98312.66
2023-04-09T19:07:43.571Z,98303.06
2023-04-09T19:10:11.894Z,98306.59
2023-04-09T19:12:46.739Z,98309.34
2023-04-09T19:15:14.981Z,98312.94
2023-04-09T19:17:43.643Z,98313.00
2023-04-09T19:20:12.810Z,98300.91
2023-04-09T19:22:43.641Z,98312.56
2023-04-09T19:25:11.779Z,98318.59
2023-04-09T19:27:40.149Z,98314.19
2023-04-09T19:30:09.974Z,98322.72
2023-04-09T19:32:39.146Z,98324.69
2023-04-09T19:35:08.849Z,98321.22
2023-04-09T19:37:37.127Z,98316.94
2023-04-09T19:40:08.368Z,98319.41
2023-04-09T19:42:36.490Z,98317.78
2023-04-09T19:45:04.781Z,98317.88
2023-04-09T19:47:34.897Z,98321.41
2023-04-09T19:50:03.104Z,98313.84
2023-04-09T19:52:31.323Z,98311.34
2023-04-09T19:54:59.418Z,98316.44
2023-04-09T19:57:29.010Z,98315.38
2023-04-09T19:59:57.156Z,98314.78
2023-04-09T20:02:26.878Z,98312.78
2023-04-09T20:04:55.966Z,98319.69
2023-04-09T20:07:24.144Z,98313.72
2023-04-09T20:09:52.664Z,98307.38
2023-04-09T20:12:21.842Z,98312.06
2023-04-09T20:14:51.290Z,98319.69
2023-04-09T20:17:20.816Z,98319.50
2023-04-09T20:19:49.772Z,98313.22
2023-04-09T20:22:18.975Z,98311.66
2023-04-09T20:24:51.650Z,98317.06
2023-04-09T20:27:20.025Z,98316.28
2023-04-09T20:29:48.448Z,98311.91
2023-04-09T20:32:18.378Z,98314.50
2023-04-09T20:34:46.829Z,98320.75
2023-04-09T20:37:18.550Z,98320.16
2023-04-09T20:39:46.857Z,98321.19
2023-04-09T20:42:15.026Z,98323.72
2023-04-09T20:44:43.397Z,98326.16
2023-04-09T20:47:12.166Z,98315.88
2023-04-09T20:49:42.589Z,98313.84
2023-04-09T20:52:10.976Z,98324.22
2023-04-09T20:54:39.606Z,98316.72
2023-04-09T20:57:07.831Z,98323.66
2023-04-09T20:59:36.123Z,98309.53
2023-04-09T21:02:06.677Z,98314.75
2023-04-09T21:04:35.053Z,98318.41
2023-04-09T21:07:04.544Z,98320.03
2023-04-09T21:09:34.184Z,98315.88
2023-04-09T21:12:02.984Z,98315.13
2023-04-09T21:14:31.421Z,98314.06
2023-04-09T21:16:59.810Z,98321.09
2023-04-09T21:19:28.039Z,98318.41
2023-04-09T21:21:56.139Z,98332.56
2023-04-09T21:24:26.934Z,98327.19
2023-04-09T21:26:55.548Z,98331.63
2023-04-09T21:29:23.652Z,98320.56
2023-04-09T21:31:51.788Z,98324.97
2023-04-09T21:34:20.017Z,98325.22
2023-04-09T21:36:48.637Z,98317.56
2023-04-09T21:39:16.778Z,98312.59
2023-04-09T21:41:46.328Z,98322.38
2023-04-09T21:44:14.639Z,98323.41
2023-04-09T21:46:43.156Z,98319.41
2023-04-09T21:49:11.401Z,98318.75
2023-04-09T21:51:39.868Z,98328.38
2023-04-09T21:54:09.399Z,98323.28
2023-04-09T21:56:38.248Z,98334.34
2023-04-09T21:59:07.720Z,98331.22
2023-04-09T22:01:35.925Z,98322.50
2023-04-09T22:04:04.430Z,98336.47
2023-04-09T22:06:33.036Z,98331.38
2023-04-09T22:09:02.020Z,98339.28
2023-04-09T22:11:30.675Z,98333.00
2023-04-09T22:13:59.038Z,98343.44
2023-04-09T22:16:28.766Z,98341.53
2023-04-09T22:18:57.580Z,98335.41
2023-04-09T22:21:26.653Z,98341.47
2023-04-09T22:23:54.785Z,98342.19
2023-04-09T22:26:23.036Z,98343.03
2023-04-09T22:28:51.647Z,98336.88
2023-04-09T22:31:21.688Z,98346.63
2023-04-09T22:33:51.449Z,98348.63
2023-04-09T22:36:19.802Z,98347.00
2023-04-09T22:38:48.109Z,98350.31
2023-04-09T22:41:17.622Z,98353.81
2023-04-09T22:43:45.940Z,98353.72
2023-04-09T22:46:14.081Z,98348.53
2023-04-09T22:48:55.653Z,98350.25
2023-04-09T22:51:28.326Z,98340.66
2023-04-09T22:53:56.465Z,98349.38
2023-04-09T22:56:25.522Z,98344.19
2023-04-09T22:58:53.842Z,98348.63
2023-04-09T23:01:23.260Z,98342.50
2023-04-09T23:03:52.096Z,98347.78
2023-04-09T23:06:20.148Z,98338.94
2023-04-09T23:08:49.689Z,98345.81
2023-04-09T23:11:17.965Z,98342.25
2023-04-09T23:13:46.155Z,98343.97
2023-04-09T23:16:14.626Z,98348.44
2023-04-09T23:18:42.761Z,98337.97
2023-04-09T23:21:11.898Z,98350.09
2023-04-09T23:23:40.549Z,98340.41
2023-04-09T23:26:10.166Z,98349.22
2023-04-09T23:28:38.228Z,98341.47
2023-04-09T23:31:06.745Z,98344.09
2023-04-09T23:33:34.904Z,98344.19
2023-04-09T23:36:03.150Z,98340.84
2023-04-09T23:38:31.422Z,98344.47
2023-04-09T23:40:59.557Z,98339.97
2023-04-09T23:43:29.150Z,98349.44
2023-04-09T23:45:57.332Z,98346.91
2023-04-09T23:48:25.586Z,98345.06
2023-04-09T23:50:53.849Z,98338.16
2023-04-09T23:53:21.926Z,98343.59
2023-04-09T23:55:51.084Z,98345.22
2023-04-09T23:58:19.249Z,98336.41
